sensor_id;sensor_type;location;lat;lon;timestamp;P1;durP1;ratioP1;P2;durP2;ratioP2
29202;SDS011;16245;51.170;4.884;2022-12-18T00:01:26;50.78;;;25.35;;
29202;SDS011;16245;51.170;4.884;2022-12-18T00:03:53;46.67;;;24.15;;
29202;SDS011;16245;51.170;4.884;2022-12-18T00:06:20;55.97;;;26.27;;
29202;SDS011;16245;51.170;4.884;2022-12-18T00:08:47;55.17;;;26.65;;
29202;SDS011;16245;51.170;4.884;2022-12-18T00:11:20;56.00;;;25.10;;
29202;SDS011;16245;51.170;4.884;2022-12-18T00:13:47;52.90;;;26.25;;
29202;SDS011;16245;51.170;4.884;2022-12-18T00:16:14;47.60;;;24.40;;
29202;SDS011;16245;51.170;4.884;2022-12-18T00:18:43;55.35;;;26.15;;
29202;SDS011;16245;51.170;4.884;2022-12-18T00:21:11;49.78;;;24.08;;
29202;SDS011;16245;51.170;4.884;2022-12-18T00:23:37;48.05;;;23.38;;
29202;SDS011;16245;51.170;4.884;2022-12-18T00:26:09;44.47;;;23.30;;
29202;SDS011;16245;51.170;4.884;2022-12-18T00:28:40;55.20;;;24.20;;
29202;SDS011;16245;51.170;4.884;2022-12-18T00:31:07;50.00;;;23.58;;
29202;SDS011;16245;51.170;4.884;2022-12-18T00:33:35;53.97;;;24.38;;
29202;SDS011;16245;51.170;4.884;2022-12-18T00:36:06;50.47;;;25.02;;
29202;SDS011;16245;51.170;4.884;2022-12-18T00:38:34;50.50;;;24.00;;
29202;SDS011;16245;51.170;4.884;2022-12-18T00:41:00;45.67;;;22.48;;
29202;SDS011;16245;51.170;4.884;2022-12-18T00:43:25;52.88;;;23.98;;
29202;SDS011;16245;51.170;4.884;2022-12-18T00:45:51;46.22;;;23.90;;
29202;SDS011;16245;51.170;4.884;2022-12-18T00:48:17;54.38;;;25.40;;
29202;SDS011;16245;51.170;4.884;2022-12-18T00:50:43;45.30;;;21.70;;
29202;SDS011;16245;51.170;4.884;2022-12-18T00:53:09;52.90;;;23.55;;
29202;SDS011;16245;51.170;4.884;2022-12-18T00:55:35;53.92;;;25.35;;
29202;SDS011;16245;51.170;4.884;2022-12-18T00:58:03;51.03;;;23.75;;
29202;SDS011;16245;51.170;4.884;2022-12-18T01:00:29;49.13;;;24.17;;
29202;SDS011;16245;51.170;4.884;2022-12-18T01:02:55;46.63;;;23.13;;
29202;SDS011;16245;51.170;4.884;2022-12-18T01:05:20;48.03;;;23.60;;
29202;SDS011;16245;51.170;4.884;2022-12-18T01:07:46;51.38;;;22.65;;
29202;SDS011;16245;51.170;4.884;2022-12-18T01:10:12;60.13;;;27.13;;
29202;SDS011;16245;51.170;4.884;2022-12-18T01:12:38;48.95;;;23.38;;
29202;SDS011;16245;51.170;4.884;2022-12-18T01:15:05;45.65;;;24.58;;
29202;SDS011;16245;51.170;4.884;2022-12-18T01:17:32;49.10;;;23.38;;
29202;SDS011;16245;51.170;4.884;2022-12-18T01:19:58;48.47;;;22.23;;
29202;SDS011;16245;51.170;4.884;2022-12-18T01:22:24;48.30;;;24.42;;
29202;SDS011;16245;51.170;4.884;2022-12-18T01:24:49;47.35;;;22.60;;
29202;SDS011;16245;51.170;4.884;2022-12-18T01:27:15;51.88;;;22.50;;
29202;SDS011;16245;51.170;4.884;2022-12-18T01:29:41;53.33;;;22.13;;
29202;SDS011;16245;51.170;4.884;2022-12-18T01:32:07;45.13;;;22.30;;
29202;SDS011;16245;51.170;4.884;2022-12-18T01:34:34;47.47;;;22.40;;
29202;SDS011;16245;51.170;4.884;2022-12-18T01:37:02;46.13;;;22.73;;
29202;SDS011;16245;51.170;4.884;2022-12-18T01:39:28;43.95;;;20.25;;
29202;SDS011;16245;51.170;4.884;2022-12-18T01:41:54;51.45;;;23.40;;
29202;SDS011;16245;51.170;4.884;2022-12-18T01:48:08;46.00;;;20.25;;
29202;SDS011;16245;51.170;4.884;2022-12-18T01:52:43;45.53;;;20.67;;
29202;SDS011;16245;51.170;4.884;2022-12-18T01:55:13;50.97;;;20.17;;
29202;SDS011;16245;51.170;4.884;2022-12-18T01:57:42;44.30;;;20.50;;
29202;SDS011;16245;51.170;4.884;2022-12-18T02:00:10;57.80;;;24.25;;
29202;SDS011;16245;51.170;4.884;2022-12-18T02:02:42;45.22;;;20.73;;
29202;SDS011;16245;51.170;4.884;2022-12-18T02:05:10;45.17;;;21.92;;
29202;SDS011;16245;51.170;4.884;2022-12-18T02:11:04;47.17;;;23.23;;
29202;SDS011;16245;51.170;4.884;2022-12-18T02:19:05;49.45;;;25.50;;
29202;SDS011;16245;51.170;4.884;2022-12-18T02:24:45;50.25;;;24.83;;
29202;SDS011;16245;51.170;4.884;2022-12-18T02:27:38;47.35;;;23.33;;
29202;SDS011;16245;51.170;4.884;2022-12-18T02:30:06;53.17;;;24.08;;
29202;SDS011;16245;51.170;4.884;2022-12-18T02:32:40;44.13;;;22.85;;
29202;SDS011;16245;51.170;4.884;2022-12-18T02:35:10;45.15;;;22.50;;
29202;SDS011;16245;51.170;4.884;2022-12-18T02:37:39;48.28;;;23.88;;
29202;SDS011;16245;51.170;4.884;2022-12-18T02:40:08;49.10;;;24.70;;
29202;SDS011;16245;51.170;4.884;2022-12-18T02:42:36;48.55;;;24.95;;
29202;SDS011;16245;51.170;4.884;2022-12-18T02:45:02;55.03;;;27.30;;
29202;SDS011;16245;51.170;4.884;2022-12-18T02:47:29;55.13;;;26.33;;
29202;SDS011;16245;51.170;4.884;2022-12-18T02:52:31;53.38;;;26.45;;
29202;SDS011;16245;51.170;4.884;2022-12-18T03:05:47;45.92;;;25.08;;
29202;SDS011;16245;51.170;4.884;2022-12-18T03:08:26;47.22;;;24.73;;
29202;SDS011;16245;51.170;4.884;2022-12-18T03:10:55;52.15;;;27.10;;
29202;SDS011;16245;51.170;4.884;2022-12-18T03:13:28;48.20;;;23.33;;
29202;SDS011;16245;51.170;4.884;2022-12-18T03:15:57;48.95;;;25.25;;
29202;SDS011;16245;51.170;4.884;2022-12-18T03:18:26;44.75;;;23.98;;
29202;SDS011;16245;51.170;4.884;2022-12-18T03:20:58;48.30;;;23.70;;
29202;SDS011;16245;51.170;4.884;2022-12-18T03:23:29;50.63;;;24.25;;
29202;SDS011;16245;51.170;4.884;2022-12-18T03:26:02;43.72;;;23.55;;
29202;SDS011;16245;51.170;4.884;2022-12-18T03:28:32;44.60;;;22.63;;
29202;SDS011;16245;51.170;4.884;2022-12-18T03:31:01;46.20;;;22.50;;
29202;SDS011;16245;51.170;4.884;2022-12-18T03:33:41;48.28;;;23.13;;
29202;SDS011;16245;51.170;4.884;2022-12-18T03:36:12;43.63;;;23.30;;
29202;SDS011;16245;51.170;4.884;2022-12-18T03:38:38;43.75;;;22.63;;
29202;SDS011;16245;51.170;4.884;2022-12-18T03:44:14;43.35;;;22.92;;
29202;SDS011;16245;51.170;4.884;2022-12-18T03:46:58;49.42;;;23.10;;
29202;SDS011;16245;51.170;4.884;2022-12-18T03:49:35;47.70;;;22.85;;
29202;SDS011;16245;51.170;4.884;2022-12-18T03:52:20;44.72;;;22.73;;
29202;SDS011;16245;51.170;4.884;2022-12-18T03:54:56;38.35;;;20.98;;
29202;SDS011;16245;51.170;4.884;2022-12-18T03:57:24;44.80;;;21.73;;
29202;SDS011;16245;51.170;4.884;2022-12-18T03:59:54;44.45;;;22.67;;
29202;SDS011;16245;51.170;4.884;2022-12-18T04:02:24;42.38;;;21.52;;
29202;SDS011;16245;51.170;4.884;2022-12-18T04:04:51;40.47;;;22.67;;
29202;SDS011;16245;51.170;4.884;2022-12-18T04:07:19;46.00;;;22.77;;
29202;SDS011;16245;51.170;4.884;2022-12-18T04:09:46;46.10;;;22.83;;
29202;SDS011;16245;51.170;4.884;2022-12-18T04:12:13;44.20;;;22.58;;
29202;SDS011;16245;51.170;4.884;2022-12-18T04:14:39;42.78;;;21.13;;
29202;SDS011;16245;51.170;4.884;2022-12-18T04:17:05;48.22;;;22.58;;
29202;SDS011;16245;51.170;4.884;2022-12-18T04:19:31;48.13;;;22.00;;
29202;SDS011;16245;51.170;4.884;2022-12-18T04:21:56;40.05;;;21.77;;
29202;SDS011;16245;51.170;4.884;2022-12-18T04:24:22;41.47;;;21.02;;
29202;SDS011;16245;51.170;4.884;2022-12-18T04:26:48;39.15;;;20.25;;
29202;SDS011;16245;51.170;4.884;2022-12-18T04:29:13;41.08;;;20.40;;
29202;SDS011;16245;51.170;4.884;2022-12-18T04:31:39;43.85;;;21.23;;
29202;SDS011;16245;51.170;4.884;2022-12-18T04:34:05;44.53;;;21.30;;
29202;SDS011;16245;51.170;4.884;2022-12-18T04:36:31;41.75;;;19.85;;
29202;SDS011;16245;51.170;4.884;2022-12-18T04:38:56;40.47;;;20.38;;
29202;SDS011;16245;51.170;4.884;2022-12-18T04:41:22;41.90;;;21.02;;
29202;SDS011;16245;51.170;4.884;2022-12-18T04:43:48;40.60;;;20.25;;
29202;SDS011;16245;51.170;4.884;2022-12-18T04:46:13;41.58;;;21.00;;
29202;SDS011;16245;51.170;4.884;2022-12-18T04:48:40;36.78;;;19.85;;
29202;SDS011;16245;51.170;4.884;2022-12-18T04:51:06;42.13;;;20.55;;
29202;SDS011;16245;51.170;4.884;2022-12-18T04:53:32;37.63;;;20.40;;
29202;SDS011;16245;51.170;4.884;2022-12-18T04:56:08;43.17;;;20.95;;
29202;SDS011;16245;51.170;4.884;2022-12-18T04:58:35;43.78;;;21.15;;
29202;SDS011;16245;51.170;4.884;2022-12-18T05:01:01;41.50;;;19.40;;
29202;SDS011;16245;51.170;4.884;2022-12-18T05:03:28;34.90;;;17.83;;
29202;SDS011;16245;51.170;4.884;2022-12-18T05:05:54;36.30;;;18.88;;
29202;SDS011;16245;51.170;4.884;2022-12-18T05:08:20;43.50;;;20.45;;
29202;SDS011;16245;51.170;4.884;2022-12-18T05:10:46;40.38;;;21.52;;
29202;SDS011;16245;51.170;4.884;2022-12-18T05:13:11;43.40;;;20.98;;
29202;SDS011;16245;51.170;4.884;2022-12-18T05:15:37;40.97;;;20.90;;
29202;SDS011;16245;51.170;4.884;2022-12-18T05:18:03;39.40;;;21.48;;
29202;SDS011;16245;51.170;4.884;2022-12-18T05:20:29;39.90;;;19.50;;
29202;SDS011;16245;51.170;4.884;2022-12-18T05:22:55;36.55;;;18.95;;
29202;SDS011;16245;51.170;4.884;2022-12-18T05:25:21;39.00;;;19.80;;
29202;SDS011;16245;51.170;4.884;2022-12-18T05:27:47;43.05;;;21.00;;
29202;SDS011;16245;51.170;4.884;2022-12-18T05:30:13;37.58;;;20.48;;
29202;SDS011;16245;51.170;4.884;2022-12-18T05:32:40;37.63;;;18.60;;
29202;SDS011;16245;51.170;4.884;2022-12-18T05:35:06;39.17;;;19.45;;
29202;SDS011;16245;51.170;4.884;2022-12-18T05:37:33;34.42;;;18.98;;
29202;SDS011;16245;51.170;4.884;2022-12-18T05:40:00;36.90;;;18.30;;
29202;SDS011;16245;51.170;4.884;2022-12-18T05:42:26;38.47;;;19.35;;
29202;SDS011;16245;51.170;4.884;2022-12-18T05:44:51;36.20;;;19.17;;
29202;SDS011;16245;51.170;4.884;2022-12-18T05:47:17;36.25;;;18.63;;
29202;SDS011;16245;51.170;4.884;2022-12-18T05:49:43;34.28;;;18.17;;
29202;SDS011;16245;51.170;4.884;2022-12-18T05:52:08;39.85;;;18.65;;
29202;SDS011;16245;51.170;4.884;2022-12-18T05:54:34;38.88;;;21.02;;
29202;SDS011;16245;51.170;4.884;2022-12-18T05:57:00;35.90;;;18.20;;
29202;SDS011;16245;51.170;4.884;2022-12-18T05:59:25;34.33;;;18.40;;
29202;SDS011;16245;51.170;4.884;2022-12-18T06:01:51;38.05;;;17.63;;
29202;SDS011;16245;51.170;4.884;2022-12-18T06:04:17;38.10;;;19.23;;
29202;SDS011;16245;51.170;4.884;2022-12-18T06:06:42;35.67;;;18.50;;
29202;SDS011;16245;51.170;4.884;2022-12-18T06:09:08;35.15;;;17.00;;
29202;SDS011;16245;51.170;4.884;2022-12-18T06:11:37;36.10;;;17.85;;
29202;SDS011;16245;51.170;4.884;2022-12-18T06:14:04;35.63;;;18.83;;
29202;SDS011;16245;51.170;4.884;2022-12-18T06:16:31;36.63;;;18.10;;
29202;SDS011;16245;51.170;4.884;2022-12-18T06:18:57;32.67;;;17.85;;
29202;SDS011;16245;51.170;4.884;2022-12-18T06:21:27;35.38;;;18.48;;
29202;SDS011;16245;51.170;4.884;2022-12-18T06:23:53;31.77;;;18.63;;
29202;SDS011;16245;51.170;4.884;2022-12-18T06:26:19;27.48;;;16.13;;
29202;SDS011;16245;51.170;4.884;2022-12-18T06:28:44;28.42;;;15.50;;
29202;SDS011;16245;51.170;4.884;2022-12-18T06:31:10;29.80;;;16.30;;
29202;SDS011;16245;51.170;4.884;2022-12-18T06:33:37;32.15;;;16.88;;
29202;SDS011;16245;51.170;4.884;2022-12-18T06:36:10;30.08;;;16.17;;
29202;SDS011;16245;51.170;4.884;2022-12-18T06:38:38;31.50;;;15.82;;
29202;SDS011;16245;51.170;4.884;2022-12-18T06:41:06;31.77;;;16.50;;
29202;SDS011;16245;51.170;4.884;2022-12-18T06:43:32;30.13;;;16.95;;
29202;SDS011;16245;51.170;4.884;2022-12-18T06:45:59;31.88;;;15.65;;
29202;SDS011;16245;51.170;4.884;2022-12-18T06:48:25;33.22;;;16.60;;
29202;SDS011;16245;51.170;4.884;2022-12-18T06:50:51;32.13;;;17.23;;
29202;SDS011;16245;51.170;4.884;2022-12-18T06:53:16;32.13;;;17.38;;
29202;SDS011;16245;51.170;4.884;2022-12-18T06:55:42;31.98;;;16.30;;
29202;SDS011;16245;51.170;4.884;2022-12-18T06:58:08;31.10;;;17.10;;
29202;SDS011;16245;51.170;4.884;2022-12-18T07:00:34;34.90;;;16.58;;
29202;SDS011;16245;51.170;4.884;2022-12-18T07:02:59;31.75;;;16.48;;
29202;SDS011;16245;51.170;4.884;2022-12-18T07:05:25;32.78;;;16.02;;
29202;SDS011;16245;51.170;4.884;2022-12-18T07:07:51;30.08;;;15.98;;
29202;SDS011;16245;51.170;4.884;2022-12-18T07:10:17;31.15;;;17.52;;
29202;SDS011;16245;51.170;4.884;2022-12-18T07:12:43;26.48;;;14.57;;
29202;SDS011;16245;51.170;4.884;2022-12-18T07:15:08;31.77;;;17.45;;
29202;SDS011;16245;51.170;4.884;2022-12-18T07:17:34;31.50;;;16.67;;
29202;SDS011;16245;51.170;4.884;2022-12-18T07:20:00;34.17;;;17.23;;
29202;SDS011;16245;51.170;4.884;2022-12-18T07:22:26;34.42;;;16.73;;
29202;SDS011;16245;51.170;4.884;2022-12-18T07:24:52;25.55;;;15.15;;
29202;SDS011;16245;51.170;4.884;2022-12-18T07:27:18;31.05;;;15.43;;
29202;SDS011;16245;51.170;4.884;2022-12-18T07:29:46;26.55;;;14.73;;
29202;SDS011;16245;51.170;4.884;2022-12-18T07:32:11;27.20;;;14.85;;
29202;SDS011;16245;51.170;4.884;2022-12-18T07:34:37;30.38;;;15.40;;
29202;SDS011;16245;51.170;4.884;2022-12-18T07:37:03;29.17;;;14.60;;
29202;SDS011;16245;51.170;4.884;2022-12-18T07:39:29;27.15;;;13.75;;
29202;SDS011;16245;51.170;4.884;2022-12-18T07:41:55;26.10;;;14.10;;
29202;SDS011;16245;51.170;4.884;2022-12-18T07:44:39;26.33;;;15.10;;
29202;SDS011;16245;51.170;4.884;2022-12-18T07:47:04;21.42;;;13.75;;
29202;SDS011;16245;51.170;4.884;2022-12-18T07:49:30;26.42;;;13.15;;
29202;SDS011;16245;51.170;4.884;2022-12-18T07:51:56;24.50;;;13.90;;
29202;SDS011;16245;51.170;4.884;2022-12-18T07:54:22;25.23;;;14.00;;
29202;SDS011;16245;51.170;4.884;2022-12-18T07:56:49;21.55;;;12.93;;
29202;SDS011;16245;51.170;4.884;2022-12-18T07:59:15;20.55;;;12.05;;
29202;SDS011;16245;51.170;4.884;2022-12-18T08:01:41;20.85;;;12.18;;
29202;SDS011;16245;51.170;4.884;2022-12-18T08:04:07;19.38;;;11.70;;
29202;SDS011;16245;51.170;4.884;2022-12-18T08:06:32;23.33;;;11.20;;
29202;SDS011;16245;51.170;4.884;2022-12-18T08:08:58;20.73;;;11.75;;
29202;SDS011;16245;51.170;4.884;2022-12-18T08:11:25;22.65;;;13.52;;
29202;SDS011;16245;51.170;4.884;2022-12-18T08:13:52;20.55;;;11.55;;
29202;SDS011;16245;51.170;4.884;2022-12-18T08:16:18;18.23;;;11.27;;
29202;SDS011;16245;51.170;4.884;2022-12-18T08:18:46;24.67;;;13.32;;
29202;SDS011;16245;51.170;4.884;2022-12-18T08:23:40;20.25;;;12.68;;
29202;SDS011;16245;51.170;4.884;2022-12-18T08:26:06;21.65;;;12.85;;
29202;SDS011;16245;51.170;4.884;2022-12-18T08:28:31;19.88;;;11.18;;
29202;SDS011;16245;51.170;4.884;2022-12-18T08:30:58;18.55;;;12.73;;
29202;SDS011;16245;51.170;4.884;2022-12-18T08:33:24;21.08;;;12.70;;
29202;SDS011;16245;51.170;4.884;2022-12-18T08:35:49;21.23;;;13.13;;
29202;SDS011;16245;51.170;4.884;2022-12-18T08:38:15;21.05;;;12.90;;
29202;SDS011;16245;51.170;4.884;2022-12-18T08:40:41;20.23;;;12.68;;
29202;SDS011;16245;51.170;4.884;2022-12-18T08:43:07;22.85;;;11.75;;
29202;SDS011;16245;51.170;4.884;2022-12-18T08:45:53;19.45;;;10.30;;
29202;SDS011;16245;51.170;4.884;2022-12-18T08:48:19;21.08;;;12.30;;
29202;SDS011;16245;51.170;4.884;2022-12-18T08:50:53;22.55;;;12.30;;
29202;SDS011;16245;51.170;4.884;2022-12-18T08:53:20;25.95;;;12.45;;
29202;SDS011;16245;51.170;4.884;2022-12-18T08:55:45;22.15;;;12.50;;
29202;SDS011;16245;51.170;4.884;2022-12-18T08:58:11;22.02;;;13.32;;
29202;SDS011;16245;51.170;4.884;2022-12-18T09:00:37;22.40;;;13.40;;
29202;SDS011;16245;51.170;4.884;2022-12-18T09:03:02;23.42;;;13.60;;
29202;SDS011;16245;51.170;4.884;2022-12-18T09:05:28;27.33;;;14.82;;
29202;SDS011;16245;51.170;4.884;2022-12-18T09:07:55;22.77;;;13.30;;
29202;SDS011;16245;51.170;4.884;2022-12-18T09:10:21;22.13;;;12.65;;
29202;SDS011;16245;51.170;4.884;2022-12-18T09:12:47;25.10;;;13.43;;
29202;SDS011;16245;51.170;4.884;2022-12-18T09:15:12;19.45;;;12.27;;
29202;SDS011;16245;51.170;4.884;2022-12-18T09:17:38;23.17;;;12.27;;
29202;SDS011;16245;51.170;4.884;2022-12-18T09:20:04;23.67;;;13.43;;
29202;SDS011;16245;51.170;4.884;2022-12-18T09:22:30;20.27;;;12.18;;
29202;SDS011;16245;51.170;4.884;2022-12-18T09:24:56;23.27;;;13.98;;
29202;SDS011;16245;51.170;4.884;2022-12-18T09:27:21;21.88;;;13.35;;
29202;SDS011;16245;51.170;4.884;2022-12-18T09:29:47;21.77;;;13.10;;
29202;SDS011;16245;51.170;4.884;2022-12-18T09:32:14;22.00;;;12.88;;
29202;SDS011;16245;51.170;4.884;2022-12-18T09:34:39;23.42;;;13.75;;
29202;SDS011;16245;51.170;4.884;2022-12-18T09:37:05;22.77;;;12.73;;
29202;SDS011;16245;51.170;4.884;2022-12-18T09:39:31;21.52;;;13.27;;
29202;SDS011;16245;51.170;4.884;2022-12-18T09:41:57;22.00;;;12.90;;
29202;SDS011;16245;51.170;4.884;2022-12-18T09:49:58;18.85;;;11.98;;
29202;SDS011;16245;51.170;4.884;2022-12-18T09:52:42;20.65;;;12.68;;
29202;SDS011;16245;51.170;4.884;2022-12-18T09:55:14;17.48;;;11.02;;
29202;SDS011;16245;51.170;4.884;2022-12-18T09:57:45;21.77;;;11.80;;
29202;SDS011;16245;51.170;4.884;2022-12-18T10:00:23;19.35;;;12.68;;
29202;SDS011;16245;51.170;4.884;2022-12-18T10:02:51;18.70;;;11.45;;
29202;SDS011;16245;51.170;4.884;2022-12-18T10:05:40;21.00;;;13.20;;
29202;SDS011;16245;51.170;4.884;2022-12-18T10:08:25;22.40;;;12.25;;
29202;SDS011;16245;51.170;4.884;2022-12-18T10:11:01;23.52;;;12.25;;
29202;SDS011;16245;51.170;4.884;2022-12-18T10:13:45;18.73;;;11.90;;
29202;SDS011;16245;51.170;4.884;2022-12-18T10:27:09;27.65;;;13.15;;
29202;SDS011;16245;51.170;4.884;2022-12-18T10:29:39;19.92;;;12.55;;
29202;SDS011;16245;51.170;4.884;2022-12-18T10:32:06;20.10;;;13.02;;
29202;SDS011;16245;51.170;4.884;2022-12-18T10:34:33;20.45;;;12.82;;
29202;SDS011;16245;51.170;4.884;2022-12-18T10:37:00;25.30;;;14.07;;
29202;SDS011;16245;51.170;4.884;2022-12-18T10:39:31;23.05;;;13.50;;
29202;SDS011;16245;51.170;4.884;2022-12-18T10:47:48;20.15;;;12.95;;
29202;SDS011;16245;51.170;4.884;2022-12-18T10:50:28;21.85;;;13.80;;
29202;SDS011;16245;51.170;4.884;2022-12-18T10:52:59;20.88;;;14.05;;
29202;SDS011;16245;51.170;4.884;2022-12-18T10:55:27;22.98;;;13.80;;
29202;SDS011;16245;51.170;4.884;2022-12-18T10:58:12;24.88;;;14.43;;
29202;SDS011;16245;51.170;4.884;2022-12-18T11:00:44;19.92;;;13.30;;
29202;SDS011;16245;51.170;4.884;2022-12-18T11:03:33;23.75;;;14.05;;
29202;SDS011;16245;51.170;4.884;2022-12-18T11:06:05;20.17;;;12.55;;
29202;SDS011;16245;51.170;4.884;2022-12-18T11:08:31;18.13;;;12.27;;
29202;SDS011;16245;51.170;4.884;2022-12-18T11:10:57;18.48;;;12.70;;
29202;SDS011;16245;51.170;4.884;2022-12-18T11:13:27;23.48;;;13.95;;
29202;SDS011;16245;51.170;4.884;2022-12-18T11:15:54;18.27;;;13.27;;
29202;SDS011;16245;51.170;4.884;2022-12-18T11:18:33;20.10;;;13.20;;
29202;SDS011;16245;51.170;4.884;2022-12-18T11:21:08;21.73;;;13.88;;
29202;SDS011;16245;51.170;4.884;2022-12-18T11:23:36;22.08;;;14.00;;
29202;SDS011;16245;51.170;4.884;2022-12-18T11:26:11;25.27;;;13.90;;
29202;SDS011;16245;51.170;4.884;2022-12-18T11:28:46;21.85;;;13.65;;
29202;SDS011;16245;51.170;4.884;2022-12-18T11:36:41;24.30;;;14.13;;
29202;SDS011;16245;51.170;4.884;2022-12-18T11:39:15;23.73;;;13.48;;
29202;SDS011;16245;51.170;4.884;2022-12-18T11:41:56;23.63;;;14.13;;
29202;SDS011;16245;51.170;4.884;2022-12-18T11:44:50;25.25;;;14.88;;
29202;SDS011;16245;51.170;4.884;2022-12-18T11:53:12;23.00;;;15.05;;
29202;SDS011;16245;51.170;4.884;2022-12-18T11:55:43;27.00;;;15.63;;
29202;SDS011;16245;51.170;4.884;2022-12-18T12:01:02;25.42;;;15.27;;
29202;SDS011;16245;51.170;4.884;2022-12-18T12:06:56;22.85;;;15.13;;
29202;SDS011;16245;51.170;4.884;2022-12-18T12:12:35;25.63;;;16.30;;
29202;SDS011;16245;51.170;4.884;2022-12-18T12:23:53;22.25;;;14.85;;
29202;SDS011;16245;51.170;4.884;2022-12-18T12:30:03;20.15;;;13.82;;
29202;SDS011;16245;51.170;4.884;2022-12-18T12:32:53;27.23;;;15.45;;
29202;SDS011;16245;51.170;4.884;2022-12-18T12:38:17;22.90;;;14.95;;
29202;SDS011;16245;51.170;4.884;2022-12-18T12:40:51;24.70;;;15.27;;
29202;SDS011;16245;51.170;4.884;2022-12-18T12:46:12;22.60;;;14.85;;
29202;SDS011;16245;51.170;4.884;2022-12-18T12:49:15;22.70;;;14.32;;
29202;SDS011;16245;51.170;4.884;2022-12-18T12:51:41;22.13;;;15.15;;
29202;SDS011;16245;51.170;4.884;2022-12-18T12:54:20;23.27;;;14.82;;
29202;SDS011;16245;51.170;4.884;2022-12-18T13:02:39;24.75;;;16.02;;
29202;SDS011;16245;51.170;4.884;2022-12-18T13:07:52;26.75;;;16.85;;
29202;SDS011;16245;51.170;4.884;2022-12-18T13:18:29;22.38;;;15.73;;
29202;SDS011;16245;51.170;4.884;2022-12-18T13:28:20;24.63;;;15.68;;
29202;SDS011;16245;51.170;4.884;2022-12-18T13:30:47;26.77;;;17.65;;
29202;SDS011;16245;51.170;4.884;2022-12-18T13:39:09;30.65;;;19.50;;
29202;SDS011;16245;51.170;4.884;2022-12-18T13:41:41;32.90;;;18.48;;
29202;SDS011;16245;51.170;4.884;2022-12-18T13:44:28;27.70;;;18.25;;
29202;SDS011;16245;51.170;4.884;2022-12-18T13:47:00;28.83;;;17.83;;
29202;SDS011;16245;51.170;4.884;2022-12-18T13:49:49;34.95;;;19.58;;
29202;SDS011;16245;51.170;4.884;2022-12-18T13:52:15;27.85;;;18.13;;
29202;SDS011;16245;51.170;4.884;2022-12-18T13:54:50;27.50;;;19.40;;
29202;SDS011;16245;51.170;4.884;2022-12-18T13:57:26;28.83;;;18.60;;
29202;SDS011;16245;51.170;4.884;2022-12-18T13:59:52;33.33;;;19.88;;
29202;SDS011;16245;51.170;4.884;2022-12-18T14:02:20;26.98;;;18.25;;
29202;SDS011;16245;51.170;4.884;2022-12-18T14:04:48;28.10;;;19.50;;
29202;SDS011;16245;51.170;4.884;2022-12-18T14:07:15;30.00;;;19.80;;
29202;SDS011;16245;51.170;4.884;2022-12-18T14:09:44;29.73;;;18.10;;
29202;SDS011;16245;51.170;4.884;2022-12-18T14:12:16;30.58;;;19.60;;
29202;SDS011;16245;51.170;4.884;2022-12-18T14:15:06;30.17;;;19.50;;
29202;SDS011;16245;51.170;4.884;2022-12-18T14:17:45;29.55;;;19.15;;
29202;SDS011;16245;51.170;4.884;2022-12-18T14:20:13;29.15;;;20.08;;
29202;SDS011;16245;51.170;4.884;2022-12-18T14:22:42;28.13;;;19.75;;
29202;SDS011;16245;51.170;4.884;2022-12-18T14:27:37;32.25;;;20.83;;
29202;SDS011;16245;51.170;4.884;2022-12-18T14:35:33;29.33;;;19.90;;
29202;SDS011;16245;51.170;4.884;2022-12-18T14:40:42;36.78;;;23.05;;
29202;SDS011;16245;51.170;4.884;2022-12-18T14:43:09;44.42;;;28.23;;
29202;SDS011;16245;51.170;4.884;2022-12-18T14:45:42;44.25;;;27.85;;
29202;SDS011;16245;51.170;4.884;2022-12-18T14:51:26;40.13;;;26.60;;
29202;SDS011;16245;51.170;4.884;2022-12-18T14:54:04;37.95;;;25.70;;
29202;SDS011;16245;51.170;4.884;2022-12-18T14:56:46;40.13;;;26.20;;
29202;SDS011;16245;51.170;4.884;2022-12-18T14:59:23;36.22;;;25.48;;
29202;SDS011;16245;51.170;4.884;2022-12-18T15:07:02;41.90;;;29.95;;
29202;SDS011;16245;51.170;4.884;2022-12-18T15:09:28;42.40;;;30.30;;
29202;SDS011;16245;51.170;4.884;2022-12-18T15:11:57;42.72;;;30.27;;
29202;SDS011;16245;51.170;4.884;2022-12-18T15:17:00;42.70;;;30.15;;
29202;SDS011;16245;51.170;4.884;2022-12-18T15:19:35;40.08;;;26.25;;
29202;SDS011;16245;51.170;4.884;2022-12-18T15:22:27;39.70;;;28.13;;
29202;SDS011;16245;51.170;4.884;2022-12-18T15:24:56;37.95;;;27.60;;
29202;SDS011;16245;51.170;4.884;2022-12-18T15:27:35;38.03;;;25.52;;
29202;SDS011;16245;51.170;4.884;2022-12-18T15:32:37;35.08;;;21.75;;
29202;SDS011;16245;51.170;4.884;2022-12-18T15:37:39;35.38;;;22.98;;
29202;SDS011;16245;51.170;4.884;2022-12-18T15:40:05;37.72;;;23.23;;
29202;SDS011;16245;51.170;4.884;2022-12-18T15:42:32;29.77;;;21.55;;
29202;SDS011;16245;51.170;4.884;2022-12-18T15:45:17;33.35;;;20.77;;
29202;SDS011;16245;51.170;4.884;2022-12-18T15:47:43;33.95;;;20.33;;
29202;SDS011;16245;51.170;4.884;2022-12-18T15:50:09;30.63;;;20.52;;
29202;SDS011;16245;51.170;4.884;2022-12-18T15:52:45;31.77;;;21.08;;
29202;SDS011;16245;51.170;4.884;2022-12-18T15:55:24;33.83;;;21.65;;
29202;SDS011;16245;51.170;4.884;2022-12-18T15:58:09;33.83;;;19.08;;
29202;SDS011;16245;51.170;4.884;2022-12-18T16:00:36;31.25;;;19.23;;
29202;SDS011;16245;51.170;4.884;2022-12-18T16:03:04;30.15;;;19.67;;
29202;SDS011;16245;51.170;4.884;2022-12-18T16:05:30;32.55;;;20.30;;
29202;SDS011;16245;51.170;4.884;2022-12-18T16:07:56;34.10;;;19.60;;
29202;SDS011;16245;51.170;4.884;2022-12-18T16:10:22;29.52;;;17.98;;
29202;SDS011;16245;51.170;4.884;2022-12-18T16:12:49;28.27;;;19.55;;
29202;SDS011;16245;51.170;4.884;2022-12-18T16:15:15;29.88;;;19.35;;
29202;SDS011;16245;51.170;4.884;2022-12-18T16:17:41;30.35;;;18.88;;
29202;SDS011;16245;51.170;4.884;2022-12-18T16:20:29;29.63;;;18.65;;
29202;SDS011;16245;51.170;4.884;2022-12-18T16:22:53;31.83;;;20.00;;
29202;SDS011;16245;51.170;4.884;2022-12-18T16:25:23;31.95;;;18.65;;
29202;SDS011;16245;51.170;4.884;2022-12-18T16:27:51;31.30;;;19.05;;
29202;SDS011;16245;51.170;4.884;2022-12-18T16:30:20;35.67;;;18.83;;
29202;SDS011;16245;51.170;4.884;2022-12-18T16:32:47;31.10;;;20.25;;
29202;SDS011;16245;51.170;4.884;2022-12-18T16:35:14;31.50;;;19.27;;
29202;SDS011;16245;51.170;4.884;2022-12-18T16:37:41;34.25;;;19.92;;
29202;SDS011;16245;51.170;4.884;2022-12-18T16:40:08;31.10;;;18.92;;
29202;SDS011;16245;51.170;4.884;2022-12-18T16:42:37;32.65;;;19.90;;
29202;SDS011;16245;51.170;4.884;2022-12-18T16:45:05;30.92;;;19.65;;
29202;SDS011;16245;51.170;4.884;2022-12-18T16:47:32;33.78;;;20.20;;
29202;SDS011;16245;51.170;4.884;2022-12-18T16:49:58;33.53;;;20.45;;
29202;SDS011;16245;51.170;4.884;2022-12-18T16:52:27;30.13;;;18.85;;
29202;SDS011;16245;51.170;4.884;2022-12-18T16:54:57;33.55;;;20.58;;
29202;SDS011;16245;51.170;4.884;2022-12-18T16:57:23;33.60;;;19.92;;
29202;SDS011;16245;51.170;4.884;2022-12-18T16:59:48;33.35;;;20.10;;
29202;SDS011;16245;51.170;4.884;2022-12-18T17:02:17;32.67;;;21.08;;
29202;SDS011;16245;51.170;4.884;2022-12-18T17:04:45;36.10;;;22.50;;
29202;SDS011;16245;51.170;4.884;2022-12-18T17:07:11;35.30;;;21.15;;